createdAt,value
2022-11-16T00:00:36.624Z,4.46
2022-11-16T00:02:38.268Z,4.51
2022-11-16T00:04:40.281Z,4.43
2022-11-16T00:06:41.941Z,4.47
2022-11-16T00:08:44.469Z,4.45
2022-11-16T00:10:47.436Z,4.33
2022-11-16T00:12:48.990Z,4.35
2022-11-16T00:14:51.155Z,4.36
2022-11-16T00:16:52.823Z,4.47
2022-11-16T00:18:57.314Z,4.48
2022-11-16T00:20:58.901Z,4.50
2022-11-16T00:23:00.253Z,4.41
2022-11-16T00:25:01.846Z,4.36
2022-11-16T00:27:04.853Z,4.41
2022-11-16T00:29:06.769Z,4.15
2022-11-16T00:31:09.610Z,4.29
2022-11-16T00:33:14.588Z,4.35
2022-11-16T00:35:16.322Z,4.33
2022-11-16T00:37:17.903Z,4.35
2022-11-16T00:39:19.727Z,4.44
2022-11-16T00:41:21.539Z,4.45
2022-11-16T00:43:25.047Z,4.21
2022-11-16T00:45:26.626Z,4.31
2022-11-16T00:47:28.039Z,4.32
2022-11-16T00:49:29.662Z,4.35
2022-11-16T00:51:31.210Z,4.38
2022-11-16T00:53:33.231Z,4.43
2022-11-16T00:55:34.800Z,4.39
2022-11-16T00:57:36.153Z,4.38
2022-11-16T00:59:39.134Z,4.39
2022-11-16T01:01:40.776Z,4.39
2022-11-16T01:03:42.650Z,4.41
2022-11-16T01:05:44.274Z,4.46
2022-11-16T01:07:45.681Z,4.47
2022-11-16T01:09:47.248Z,4.45
2022-11-16T01:11:48.687Z,4.31
2022-11-16T01:13:50.625Z,4.31
2022-11-16T01:15:53.579Z,4.37
2022-11-16T01:17:56.070Z,4.38
2022-11-16T01:19:58.168Z,4.36
2022-11-16T01:22:00.328Z,4.39
2022-11-16T01:24:02.017Z,4.43
2022-11-16T01:26:03.648Z,4.39
2022-11-16T01:28:05.095Z,4.31
2022-11-16T01:30:09.641Z,4.20
2022-11-16T01:32:12.629Z,4.20
2022-11-16T01:34:14.197Z,4.35
2022-11-16T01:36:15.932Z,4.36
2022-11-16T01:38:17.777Z,4.23
2022-11-16T01:40:19.517Z,4.36
2022-11-16T01:42:23.787Z,4.43
2022-11-16T01:45:02.540Z,4.54
2022-11-16T01:47:09.858Z,4.40
2022-11-16T01:49:16.586Z,4.54
2022-11-16T01:51:18.480Z,4.54
2022-11-16T01:53:20.429Z,4.50
2022-11-16T01:55:23.538Z,4.48
2022-11-16T01:57:29.258Z,4.48
2022-11-16T01:59:31.765Z,4.43
2022-11-16T02:01:33.552Z,4.47
2022-11-16T02:03:37.531Z,4.41
2022-11-16T02:05:55.707Z,4.38
2022-11-16T02:08:28.137Z,4.33
2022-11-16T02:10:42.591Z,4.20
2022-11-16T02:13:05.960Z,4.16
2022-11-16T02:15:18.338Z,4.19
2022-11-16T02:17:32.035Z,4.19
2022-11-16T02:20:00.254Z,4.08
2022-11-16T02:22:09.876Z,4.15
2022-11-16T02:24:40.767Z,4.14
2022-11-16T02:27:07.643Z,4.02
2022-11-16T02:29:20.682Z,4.13
2022-11-16T02:31:27.241Z,4.14
2022-11-16T02:33:33.473Z,4.03
2022-11-16T02:35:41.860Z,4.15
2022-11-16T02:37:47.736Z,4.16
2022-11-16T02:39:56.019Z,4.05
2022-11-16T02:41:59.572Z,3.99
2022-11-16T02:44:08.695Z,3.97
2022-11-16T02:46:18.608Z,4.08
2022-11-16T02:48:24.123Z,4.03
2022-11-16T02:50:26.809Z,3.94
2022-11-16T02:52:29.281Z,4.02
2022-11-16T02:54:31.157Z,4.06
2022-11-16T02:56:43.049Z,4.13
2022-11-16T02:58:45.315Z,4.25
2022-11-16T03:00:54.779Z,4.13
2022-11-16T03:03:10.352Z,4.05
2022-11-16T03:05:15.386Z,4.04
2022-11-16T03:07:23.104Z,3.93
2022-11-16T03:09:28.920Z,3.83
2022-11-16T03:11:33.064Z,4.00
2022-11-16T03:13:37.303Z,3.92
2022-11-16T03:15:41.601Z,4.01
2022-11-16T03:17:46.432Z,3.93
2022-11-16T03:19:58.868Z,3.90
2022-11-16T03:22:07.130Z,3.89
2022-11-16T03:24:08.776Z,4.02
2022-11-16T03:26:12.557Z,4.01
2022-11-16T03:28:21.379Z,4.06
2022-11-16T03:30:25.136Z,3.98
2022-11-16T03:32:34.538Z,3.99
2022-11-16T03:34:38.976Z,3.95
2022-11-16T03:36:44.889Z,4.10
2022-11-16T03:38:49.145Z,4.20
2022-11-16T03:40:51.278Z,4.17
2022-11-16T03:42:56.489Z,4.31
2022-11-16T03:44:58.850Z,4.39
2022-11-16T03:47:01.540Z,4.48
2022-11-16T03:49:03.098Z,4.52
2022-11-16T03:51:05.659Z,4.53
2022-11-16T03:53:08.578Z,4.48
2022-11-16T03:55:10.125Z,4.58
2022-11-16T03:57:11.954Z,4.51
2022-11-16T03:59:13.511Z,4.36
2022-11-16T04:01:14.955Z,4.30
2022-11-16T04:03:16.577Z,4.19
2022-11-16T04:05:18.357Z,4.22
2022-11-16T04:07:19.746Z,4.23
2022-11-16T04:09:22.790Z,4.14
2022-11-16T04:11:24.438Z,4.10
2022-11-16T04:13:27.348Z,4.17
2022-11-16T04:15:28.962Z,4.23
2022-11-16T04:17:30.326Z,4.30
2022-11-16T04:19:31.875Z,4.39
2022-11-16T04:21:39.102Z,4.36
2022-11-16T04:23:41.581Z,4.38
2022-11-16T04:25:46.593Z,4.31
2022-11-16T04:27:52.493Z,4.33
2022-11-16T04:29:55.135Z,4.44
2022-11-16T04:31:56.860Z,4.43
2022-11-16T04:33:58.469Z,4.42
2022-11-16T04:35:59.815Z,4.44
2022-11-16T04:38:01.436Z,4.45
2022-11-16T04:40:03.303Z,4.36
2022-11-16T04:42:15.094Z,4.43
2022-11-16T04:44:17.073Z,4.43
2022-11-16T04:46:18.729Z,4.43
2022-11-16T04:48:20.504Z,4.43
2022-11-16T04:50:22.075Z,4.46
2022-11-16T04:52:23.629Z,4.46
2022-11-16T04:54:25.163Z,4.62
2022-11-16T04:56:26.911Z,4.54
2022-11-16T04:58:30.222Z,4.71
2022-11-16T05:00:32.467Z,4.80
2022-11-16T05:02:34.021Z,4.77
2022-11-16T05:04:35.714Z,4.79
2022-11-16T05:06:37.334Z,4.82
2022-11-16T05:08:38.723Z,4.84
2022-11-16T05:10:40.349Z,4.90
2022-11-16T05:12:41.738Z,5.01
2022-11-16T05:14:45.292Z,5.01
2022-11-16T05:16:46.949Z,4.92
2022-11-16T05:18:48.294Z,4.94
2022-11-16T05:20:49.845Z,4.87
2022-11-16T05:22:54.403Z,4.99
2022-11-16T05:24:55.967Z,4.88
2022-11-16T05:26:57.335Z,4.87
2022-11-16T05:28:59.032Z,4.89
2022-11-16T05:31:01.985Z,4.98
2022-11-16T05:33:03.676Z,4.96
2022-11-16T05:35:06.360Z,4.97
2022-11-16T05:37:07.931Z,5.11
2022-11-16T05:39:09.270Z,5.13
2022-11-16T05:41:11.009Z,5.16
2022-11-16T05:43:12.572Z,5.26
2022-11-16T05:45:18.484Z,5.34
2022-11-16T05:47:23.852Z,5.36
2022-11-16T05:49:25.687Z,5.43
2022-11-16T05:51:27.259Z,5.47
2022-11-16T05:53:28.730Z,5.44
2022-11-16T05:55:30.335Z,5.44
2022-11-16T05:57:31.688Z,5.43
2022-11-16T05:59:33.368Z,5.38
2022-11-16T06:01:35.141Z,5.44
2022-11-16T06:03:38.219Z,5.52
2022-11-16T06:05:40.839Z,5.61
2022-11-16T06:07:42.551Z,5.56
2022-11-16T06:09:43.864Z,5.61
2022-11-16T06:11:45.463Z,5.66
2022-11-16T06:13:47.381Z,5.68
2022-11-16T06:15:54.211Z,5.78
2022-11-16T06:17:55.840Z,5.85
2022-11-16T06:19:58.760Z,5.88
2022-11-16T06:22:00.412Z,6.23
2022-11-16T06:24:02.092Z,6.34
2022-11-16T06:26:04.942Z,6.25
2022-11-16T06:28:08.143Z,6.27
2022-11-16T06:30:10.373Z,6.23
2022-11-16T06:32:11.919Z,6.19
2022-11-16T06:34:13.236Z,6.15
2022-11-16T06:36:16.201Z,6.19
2022-11-16T06:38:17.723Z,6.10
2022-11-16T06:40:19.171Z,6.16
2022-11-16T06:42:21.010Z,6.20
2022-11-16T06:44:22.506Z,6.29
2022-11-16T06:46:24.160Z,6.28
2022-11-16T06:48:26.221Z,6.22
2022-11-16T06:50:27.743Z,6.18
2022-11-16T06:52:30.503Z,6.22
2022-11-16T06:54:32.132Z,6.26
2022-11-16T06:56:34.172Z,6.27
2022-11-16T06:58:36.087Z,6.28
2022-11-16T07:00:38.020Z,6.27
2022-11-16T07:02:40.014Z,6.37
2022-11-16T07:04:44.384Z,6.34
2022-11-16T07:06:45.941Z,6.23
2022-11-16T07:08:48.669Z,6.33
2022-11-16T07:10:50.208Z,6.37
2022-11-16T07:12:51.577Z,6.33
2022-11-16T07:14:53.245Z,6.39
2022-11-16T07:16:59.298Z,6.39
2022-11-16T07:19:03.239Z,6.37
2022-11-16T07:21:09.211Z,6.40
2022-11-16T07:23:14.113Z,6.40
2022-11-16T07:25:17.428Z,6.29
2022-11-16T07:27:18.936Z,6.18
2022-11-16T07:29:20.524Z,6.10
2022-11-16T07:31:21.951Z,5.89
2022-11-16T07:33:23.593Z,5.85
2022-11-16T07:35:25.359Z,5.84
2022-11-16T07:37:26.933Z,5.95
2022-11-16T07:39:28.270Z,5.95
2022-11-16T07:41:31.643Z,5.91
2022-11-16T07:43:34.300Z,5.93
2022-11-16T07:45:35.813Z,5.95
2022-11-16T07:47:37.206Z,6.02
2022-11-16T07:49:38.834Z,6.06
2022-11-16T07:51:40.572Z,5.99
2022-11-16T07:53:43.106Z,5.98
2022-11-16T07:55:50.809Z,5.99
2022-11-16T07:57:53.810Z,6.02
2022-11-16T07:59:56.406Z,5.89
2022-11-16T08:01:58.135Z,5.80
2022-11-16T08:04:00.161Z,5.77
2022-11-16T08:06:04.121Z,5.74
2022-11-16T08:08:06.008Z,5.74
2022-11-16T08:10:08.635Z,5.76
2022-11-16T08:12:10.210Z,5.81
2022-11-16T08:14:13.064Z,5.82
2022-11-16T08:16:16.085Z,5.89
2022-11-16T08:18:17.671Z,5.95
2022-11-16T08:20:19.103Z,5.97
2022-11-16T08:22:20.654Z,6.07
2022-11-16T08:24:22.710Z,5.99
2022-11-16T08:26:24.353Z,6.01
2022-11-16T08:28:26.329Z,5.97
2022-11-16T08:30:29.236Z,6.00
2022-11-16T08:32:31.068Z,5.84
2022-11-16T08:34:33.478Z,5.78
2022-11-16T08:36:34.988Z,5.78
2022-11-16T08:38:36.545Z,5.78
2022-11-16T08:40:37.913Z,5.77
2022-11-16T08:42:43.449Z,5.80
2022-11-16T08:44:45.660Z,5.74
2022-11-16T08:46:48.576Z,5.79
2022-11-16T08:48:54.502Z,5.77
2022-11-16T08:51:16.943Z,5.70
2022-11-16T08:53:19.874Z,5.63
2022-11-16T08:55:21.221Z,5.49
2022-11-16T08:57:22.794Z,5.52
2022-11-16T08:59:24.138Z,5.47
2022-11-16T09:01:27.865Z,5.51
2022-11-16T09:03:31.001Z,5.54
2022-11-16T09:05:32.563Z,5.53
2022-11-16T09:07:34.334Z,5.51
2022-11-16T09:09:36.201Z,5.54
2022-11-16T09:11:38.065Z,5.60
2022-11-16T09:13:39.946Z,5.65
2022-11-16T09:15:41.537Z,5.63
2022-11-16T09:17:42.937Z,5.60
2022-11-16T09:19:45.900Z,5.62
2022-11-16T09:21:47.528Z,5.52
2022-11-16T09:23:49.293Z,5.60
2022-11-16T09:25:50.933Z,5.49
2022-11-16T09:27:54.309Z,5.58
2022-11-16T09:29:55.880Z,5.68
2022-11-16T09:31:57.234Z,5.61
2022-11-16T09:33:59.094Z,5.68
2022-11-16T09:36:03.456Z,5.71
2022-11-16T09:38:05.080Z,5.74
2022-11-16T09:40:07.199Z,5.68
2022-11-16T09:42:27.865Z,5.82
2022-11-16T09:44:50.696Z,5.75
2022-11-16T09:46:56.828Z,5.69
2022-11-16T09:49:02.345Z,5.73
2022-11-16T09:51:08.742Z,5.74
2022-11-16T09:53:32.304Z,5.77
2022-11-16T09:55:41.242Z,5.79
2022-11-16T09:57:44.014Z,5.77
2022-11-16T09:59:48.419Z,5.78
2022-11-16T10:01:54.546Z,5.87
2022-11-16T10:04:01.279Z,5.78
2022-11-16T10:06:06.054Z,5.72
2022-11-16T10:08:16.171Z,5.60
2022-11-16T10:10:25.361Z,5.59
2022-11-16T10:12:31.815Z,5.49
2022-11-16T10:15:00.914Z,5.34
2022-11-16T10:17:06.874Z,5.46
2022-11-16T10:19:17.176Z,5.41
2022-11-16T10:21:34.779Z,5.36
2022-11-16T10:23:49.173Z,5.33
2022-11-16T10:25:54.249Z,5.32
2022-11-16T10:28:29.128Z,5.38
2022-11-16T10:30:36.537Z,5.36
2022-11-16T10:32:45.834Z,5.34
2022-11-16T10:34:51.399Z,5.26
2022-11-16T10:37:00.641Z,5.49
2022-11-16T10:39:02.194Z,5.52
2022-11-16T10:41:13.129Z,5.44
2022-11-16T10:43:16.148Z,5.46
2022-11-16T10:45:22.400Z,5.55
2022-11-16T10:47:34.039Z,5.54
2022-11-16T10:49:41.739Z,5.56
2022-11-16T10:51:43.634Z,5.60
2022-11-16T10:53:46.820Z,5.55
2022-11-16T10:56:09.661Z,5.52
2022-11-16T10:58:11.195Z,5.60
2022-11-16T11:00:32.048Z,5.63
2022-11-16T11:02:35.413Z,5.69
2022-11-16T11:04:37.028Z,5.72
2022-11-16T11:06:38.908Z,5.68
2022-11-16T11:08:40.579Z,5.61
2022-11-16T11:10:43.604Z,5.46
2022-11-16T11:13:01.820Z,5.60
2022-11-16T11:15:11.914Z,5.67
2022-11-16T11:17:17.856Z,5.46
2022-11-16T11:19:25.282Z,5.65
2022-11-16T11:21:27.654Z,5.51
2022-11-16T11:23:29.287Z,5.49
2022-11-16T11:25:34.119Z,5.40
2022-11-16T11:27:37.136Z,5.36
2022-11-16T11:29:42.736Z,5.45
2022-11-16T11:31:46.649Z,5.58
2022-11-16T11:33:50.524Z,5.62
2022-11-16T11:36:04.935Z,5.61
2022-11-16T11:38:08.375Z,5.69
2022-11-16T11:40:22.573Z,5.64
2022-11-16T11:42:24.478Z,5.69
2022-11-16T11:44:35.811Z,5.62
2022-11-16T11:47:28.738Z,5.56
2022-11-16T11:49:10.341Z,5.76
2022-11-16T11:51:17.156Z,5.84
2022-11-16T11:53:36.997Z,5.88
2022-11-16T11:55:39.259Z,5.74
2022-11-16T11:57:43.782Z,5.73
2022-11-16T11:59:47.758Z,5.72
2022-11-16T12:02:02.414Z,5.76
2022-11-16T12:04:36.879Z,5.65
2022-11-16T12:06:49.904Z,5.62
2022-11-16T12:09:04.549Z,5.69
2022-11-16T12:11:14.968Z,5.70
2022-11-16T12:13:38.141Z,5.62
2022-11-16T12:15:59.062Z,5.70
2022-11-16T12:18:15.943Z,5.77
2022-11-16T12:20:29.799Z,5.80
2022-11-16T12:22:50.008Z,5.79
2022-11-16T12:25:05.743Z,5.72
2022-11-16T12:27:18.203Z,5.85
2022-11-16T12:29:25.473Z,5.71
2022-11-16T12:31:50.260Z,5.79
2022-11-16T12:34:02.147Z,5.78
2022-11-16T12:36:10.390Z,5.84
2022-11-16T12:38:40.438Z,5.79
2022-11-16T12:40:55.790Z,5.82
2022-11-16T12:43:03.090Z,5.93
2022-11-16T12:45:23.078Z,5.90
2022-11-16T12:47:34.692Z,5.82
2022-11-16T12:49:54.196Z,5.93
2022-11-16T12:52:11.134Z,5.92
2022-11-16T12:54:33.354Z,5.84
2022-11-16T12:56:49.438Z,5.90
2022-11-16T12:59:17.516Z,5.92
2022-11-16T13:01:24.706Z,5.87
2022-11-16T13:03:33.546Z,5.84
2022-11-16T13:05:47.816Z,5.83
2022-11-16T13:07:53.528Z,5.74
2022-11-16T13:10:02.862Z,5.79
2022-11-16T13:12:10.817Z,5.75
2022-11-16T13:14:15.326Z,5.85
2022-11-16T13:16:18.631Z,5.88
2022-11-16T13:18:22.803Z,5.76
2022-11-16T13:20:40.037Z,5.77
2022-11-16T13:22:52.004Z,5.71
2022-11-16T13:24:58.429Z,5.77
2022-11-16T13:27:18.089Z,5.76
2022-11-16T13:29:29.531Z,5.75
2022-11-16T13:31:35.424Z,5.81
2022-11-16T13:33:46.243Z,5.86
2022-11-16T13:35:53.429Z,5.88
2022-11-16T13:37:54.994Z,5.91
2022-11-16T13:40:09.692Z,5.96
2022-11-16T13:42:12.963Z,5.87
2022-11-16T13:44:28.112Z,5.86
2022-11-16T13:46:55.757Z,5.86
2022-11-16T13:48:58.502Z,5.95
2022-11-16T13:51:03.907Z,5.94
2022-11-16T13:55:31.800Z,6.04
2022-11-16T13:57:34.694Z,6.13
2022-11-16T13:59:36.715Z,6.07
2022-11-16T14:01:54.665Z,6.03
2022-11-16T14:04:39.510Z,6.11
2022-11-16T14:06:58.343Z,6.13
2022-11-16T14:09:00.316Z,6.16
2022-11-16T14:11:01.984Z,6.06
2022-11-16T14:13:04.491Z,6.06
2022-11-16T14:15:14.657Z,6.07
2022-11-16T14:17:50.233Z,6.18
2022-11-16T14:19:55.370Z,6.12
2022-11-16T14:22:06.723Z,5.99
2022-11-16T14:24:21.952Z,6.00
2022-11-16T14:26:32.183Z,5.96
2022-11-16T14:29:07.159Z,5.93
2022-11-16T14:31:17.811Z,5.98
2022-11-16T14:33:28.696Z,6.00
2022-11-16T14:35:33.778Z,6.00
2022-11-16T14:37:40.241Z,5.93
2022-11-16T14:39:43.435Z,6.01
2022-11-16T14:41:46.217Z,6.07
2022-11-16T14:43:50.310Z,6.05
2022-11-16T14:45:56.104Z,6.05
2022-11-16T14:48:02.586Z,5.96
2022-11-16T14:50:04.571Z,5.94
2022-11-16T14:52:06.590Z,5.99
2022-11-16T14:54:15.431Z,5.98
2022-11-16T14:56:18.821Z,5.96
2022-11-16T14:58:23.182Z,5.88
2022-11-16T15:00:24.957Z,5.93
2022-11-16T15:02:27.314Z,5.96
2022-11-16T15:04:30.693Z,5.92
2022-11-16T15:06:38.860Z,5.86
2022-11-16T15:08:47.328Z,5.89
2022-11-16T15:10:52.560Z,5.78
2022-11-16T15:12:56.393Z,5.76
2022-11-16T15:15:03.326Z,5.78
2022-11-16T15:17:07.599Z,5.74
2022-11-16T15:19:12.587Z,5.59
2022-11-16T15:21:21.317Z,5.78
2022-11-16T15:23:30.854Z,5.81
2022-11-16T15:25:35.306Z,5.68
2022-11-16T15:27:41.345Z,5.72
2022-11-16T15:29:42.983Z,5.71
2022-11-16T15:31:45.164Z,5.71
2022-11-16T15:33:46.979Z,5.76
2022-11-16T15:35:48.528Z,5.74
2022-11-16T15:37:59.887Z,5.68
2022-11-16T15:40:01.777Z,5.69
2022-11-16T15:42:04.454Z,5.61
2022-11-16T15:44:14.690Z,5.60
2022-11-16T15:46:17.774Z,5.57
2022-11-16T15:48:22.287Z,5.55
2022-11-16T15:50:23.960Z,5.54
2022-11-16T15:52:41.087Z,5.51
2022-11-16T15:54:42.675Z,5.55
2022-11-16T15:56:44.076Z,5.63
2022-11-16T15:58:49.318Z,5.60
2022-11-16T16:00:53.561Z,5.59
2022-11-16T16:03:01.245Z,5.50
2022-11-16T16:05:03.191Z,5.42
2022-11-16T16:07:05.262Z,5.40
2022-11-16T16:09:07.013Z,5.37
2022-11-16T16:11:10.633Z,5.45
2022-11-16T16:13:25.606Z,5.45
2022-11-16T16:15:29.307Z,5.38
2022-11-16T16:17:32.306Z,5.45
2022-11-16T16:19:36.982Z,5.35
2022-11-16T16:21:43.666Z,5.38
2022-11-16T16:23:46.590Z,5.40
2022-11-16T16:25:50.662Z,5.39
2022-11-16T16:27:52.448Z,5.38
2022-11-16T16:29:55.552Z,5.40
2022-11-16T16:31:57.255Z,5.36
2022-11-16T16:34:10.365Z,5.32
2022-11-16T16:36:12.068Z,5.41
2022-11-16T16:38:13.714Z,5.36
2022-11-16T16:40:15.457Z,5.37
2022-11-16T16:42:17.634Z,5.41
2022-11-16T16:44:19.191Z,5.38
2022-11-16T16:46:20.703Z,5.37
2022-11-16T16:48:22.301Z,5.43
2022-11-16T16:50:25.030Z,5.33
2022-11-16T16:52:26.609Z,5.34
2022-11-16T16:54:28.087Z,5.44
2022-11-16T16:56:29.633Z,5.41
2022-11-16T16:58:30.989Z,5.45
2022-11-16T17:00:32.713Z,5.42
2022-11-16T17:02:36.488Z,5.35
2022-11-16T17:04:39.307Z,5.27
2022-11-16T17:06:46.316Z,5.29
2022-11-16T17:08:48.227Z,5.33
2022-11-16T17:10:49.626Z,5.33
2022-11-16T17:12:53.643Z,5.24
2022-11-16T17:14:55.231Z,5.37
2022-11-16T17:16:56.570Z,5.33
2022-11-16T17:18:58.547Z,5.40
2022-11-16T17:21:03.864Z,5.44
2022-11-16T17:23:06.736Z,5.41
2022-11-16T17:25:09.873Z,5.42
2022-11-16T17:27:11.893Z,5.46
2022-11-16T17:29:13.748Z,5.44
2022-11-16T17:31:15.296Z,5.48
2022-11-16T17:33:16.670Z,5.55
2022-11-16T17:35:18.284Z,5.56
2022-11-16T17:37:19.645Z,5.58
2022-11-16T17:39:22.596Z,5.37
2022-11-16T17:41:24.306Z,5.47
2022-11-16T17:43:25.883Z,5.49
2022-11-16T17:45:27.273Z,5.48
2022-11-16T17:47:30.776Z,5.44
2022-11-16T17:49:32.541Z,6.11
2022-11-16T17:51:34.199Z,6.33
2022-11-16T17:53:36.605Z,6.78
2022-11-16T17:55:39.626Z,7.02
2022-11-16T17:57:41.233Z,7.19
2022-11-16T17:59:42.882Z,7.16
2022-11-16T18:01:44.479Z,6.62
2022-11-16T18:03:46.105Z,6.28
2022-11-16T18:05:47.488Z,6.16
2022-11-16T18:07:49.045Z,5.93
2022-11-16T18:09:50.603Z,5.85
2022-11-16T18:11:53.650Z,5.68
2022-11-16T18:13:56.753Z,5.56
2022-11-16T18:16:03.085Z,5.49
2022-11-16T18:18:05.600Z,5.56
2022-11-16T18:20:08.198Z,5.38
2022-11-16T18:22:09.779Z,5.40
2022-11-16T18:24:11.517Z,5.37
2022-11-16T18:26:15.069Z,5.34
2022-11-16T18:28:18.629Z,5.43
2022-11-16T18:30:20.554Z,5.44
2022-11-16T18:32:24.940Z,5.42
2022-11-16T18:34:26.492Z,5.35
2022-11-16T18:36:27.864Z,5.44
2022-11-16T18:38:29.565Z,5.35
2022-11-16T18:40:31.195Z,5.41
2022-11-16T18:42:32.546Z,5.52
2022-11-16T18:44:35.462Z,5.55
2022-11-16T18:46:37.044Z,5.54
2022-11-16T18:48:47.621Z,5.49
2022-11-16T18:50:49.253Z,5.44
2022-11-16T18:52:50.702Z,5.41
2022-11-16T18:54:52.229Z,5.43
2022-11-16T18:56:54.944Z,5.48
2022-11-16T18:58:56.662Z,5.50
2022-11-16T19:01:02.604Z,5.53
2022-11-16T19:03:09.904Z,5.50
2022-11-16T19:05:12.830Z,5.48
2022-11-16T19:07:14.501Z,5.49
2022-11-16T19:09:16.090Z,5.60
2022-11-16T19:11:17.700Z,5.57
2022-11-16T19:13:19.211Z,5.60
2022-11-16T19:15:20.795Z,5.62
2022-11-16T19:17:23.989Z,5.58
2022-11-16T19:19:25.555Z,5.40
2022-11-16T19:21:27.309Z,5.38
2022-11-16T19:23:28.887Z,5.38
2022-11-16T19:25:30.288Z,5.32
2022-11-16T19:27:33.476Z,5.39
2022-11-16T19:29:35.069Z,5.32
2022-11-16T19:31:36.451Z,5.44
2022-11-16T19:33:40.326Z,5.50
2022-11-16T19:35:41.896Z,5.54
2022-11-16T19:37:43.208Z,5.46
2022-11-16T19:39:44.864Z,5.49
2022-11-16T19:41:46.453Z,5.46
2022-11-16T19:43:48.251Z,5.40
2022-11-16T19:45:49.793Z,5.44
2022-11-16T19:47:51.206Z,5.40
2022-11-16T19:49:54.134Z,5.37
2022-11-16T19:51:55.775Z,5.29
2022-11-16T19:53:57.990Z,5.36
2022-11-16T19:55:59.657Z,5.38
2022-11-16T19:58:01.187Z,5.42
2022-11-16T20:00:03.116Z,5.48
2022-11-16T20:02:04.970Z,5.51
2022-11-16T20:04:06.543Z,5.50
2022-11-16T20:06:10.258Z,5.42
2022-11-16T20:08:11.791Z,5.28
2022-11-16T20:10:13.318Z,5.40
2022-11-16T20:12:15.100Z,5.34
2022-11-16T20:14:16.687Z,5.33
2022-11-16T20:16:18.673Z,5.33
2022-11-16T20:18:20.263Z,5.38
2022-11-16T20:20:21.605Z,5.40
2022-11-16T20:22:24.661Z,5.45
2022-11-16T20:24:26.348Z,5.53
2022-11-16T20:26:33.226Z,5.51
2022-11-16T20:28:35.760Z,5.41
2022-11-16T20:30:37.372Z,5.44
2022-11-16T20:32:38.725Z,5.43
2022-11-16T20:34:40.260Z,5.40
2022-11-16T20:36:43.491Z,5.37
2022-11-16T20:38:46.630Z,5.38
2022-11-16T20:40:48.183Z,5.35
2022-11-16T20:42:49.577Z,5.37
2022-11-16T20:44:51.115Z,5.46
2022-11-16T20:46:52.533Z,5.52
2022-11-16T20:48:55.345Z,5.41
2022-11-16T20:50:56.897Z,5.43
2022-11-16T20:52:58.241Z,5.37
2022-11-16T20:55:01.191Z,5.30
2022-11-16T20:57:02.973Z,5.34
2022-11-16T20:59:04.592Z,5.23
2022-11-16T21:01:07.007Z,5.41
2022-11-16T21:03:09.046Z,5.36
2022-11-16T21:05:10.611Z,5.21
2022-11-16T21:07:12.012Z,5.37
2022-11-16T21:09:14.568Z,5.36
2022-11-16T21:11:19.460Z,5.21
2022-11-16T21:13:21.432Z,5.04
2022-11-16T21:15:22.979Z,5.17
2022-11-16T21:17:24.522Z,5.19
2022-11-16T21:19:25.918Z,5.22
2022-11-16T21:21:27.635Z,5.17
2022-11-16T21:23:31.113Z,5.19
2022-11-16T21:25:32.681Z,5.17
2022-11-16T21:27:35.451Z,5.21
2022-11-16T21:29:37.007Z,5.22
2022-11-16T21:31:38.409Z,5.26
2022-11-16T21:33:43.412Z,5.15
2022-11-16T21:35:45.156Z,5.09
2022-11-16T21:37:46.801Z,5.12
2022-11-16T21:39:48.351Z,5.08
2022-11-16T21:41:49.832Z,5.01
2022-11-16T21:43:53.262Z,5.10
2022-11-16T21:46:01.223Z,5.04
2022-11-16T21:48:02.623Z,4.98
2022-11-16T21:52:26.445Z,4.99
2022-11-16T21:54:27.955Z,4.97
2022-11-16T21:56:29.491Z,4.84
2022-11-16T21:58:31.053Z,4.87
2022-11-16T22:00:33.829Z,4.97
2022-11-16T22:02:35.552Z,4.85
2022-11-16T22:04:37.100Z,4.80
2022-11-16T22:06:38.604Z,4.87
2022-11-16T22:08:40.263Z,4.81
2022-11-16T22:10:41.586Z,4.78
2022-11-16T22:12:43.114Z,4.80
2022-11-16T22:14:44.690Z,4.67
2022-11-16T22:16:47.382Z,4.57
2022-11-16T22:18:49.027Z,4.56
2022-11-16T22:20:50.625Z,4.57
2022-11-16T22:22:51.940Z,4.56
2022-11-16T22:24:53.752Z,4.54
2022-11-16T22:26:55.454Z,4.38
2022-11-16T22:28:57.823Z,4.40
2022-11-16T22:31:00.975Z,4.41
2022-11-16T22:33:04.155Z,4.50
2022-11-16T22:35:06.094Z,4.37
2022-11-16T22:37:07.646Z,4.30
2022-11-16T22:39:09.254Z,4.20
2022-11-16T22:41:10.646Z,4.38
2022-11-16T22:43:12.200Z,4.31
2022-11-16T22:45:13.826Z,4.27
2022-11-16T22:47:15.290Z,4.30
2022-11-16T22:49:18.388Z,4.32
2022-11-16T22:51:22.057Z,4.27
2022-11-16T22:53:23.631Z,4.30
2022-11-16T22:55:25.413Z,4.27
2022-11-16T22:57:27.003Z,4.34
2022-11-16T22:59:28.385Z,4.36
2022-11-16T23:01:29.981Z,4.29
2022-11-16T23:03:31.545Z,4.27
2022-11-16T23:05:34.612Z,4.23
2022-11-16T23:07:36.218Z,4.15
2022-11-16T23:09:37.661Z,4.03
2022-11-16T23:11:39.168Z,3.93
2022-11-16T23:13:40.702Z,3.86
2022-11-16T23:15:42.337Z,3.82
2022-11-16T23:17:45.121Z,3.75
2022-11-16T23:19:46.848Z,3.65
2022-11-16T23:21:49.835Z,3.70
2022-11-16T23:23:51.380Z,3.77
2022-11-16T23:25:52.943Z,3.69
2022-11-16T23:27:57.589Z,3.69
2022-11-16T23:30:00.983Z,3.68
2022-11-16T23:32:02.537Z,3.73
2022-11-16T23:34:04.643Z,3.61
2022-11-16T23:36:06.774Z,3.60
2022-11-16T23:38:09.729Z,3.55
2022-11-16T23:40:11.875Z,3.53
2022-11-16T23:42:13.413Z,3.49
2022-11-16T23:44:15.081Z,3.45
2022-11-16T23:46:16.524Z,3.55
2022-11-16T23:48:18.778Z,3.43
2022-11-16T23:50:20.348Z,3.55
2022-11-16T23:52:21.943Z,3.43
2022-11-16T23:54:24.745Z,3.41
2022-11-16T23:56:27.702Z,3.36
2022-11-16T23:58:29.573Z,3.29
